Météo Nord-Pas-de-Calais   La météo au plus près de chez vous

Station météorologique

Observations météo à Barcelonnette (04019)

04019001 1155 m Dernier relevé à 19:24
20.1°C
Humidité 29 % Vent 12.6 km/h

Journée consultée

Jeudi 3 Septembre 2026

Synthèse de la journée

Périodes de référence en UTC

Température maximale

28.1°C

à 17:00

06h 06h

Température minimale

6.2°C

à 07:00

18h 18h

Rafale maximale

36 km/h

à 16:06

00h 00h

Précipitations

0 mm

Cumul quotidien

06h 06h

Graphiques de la journée

Heure locale Réduire

Données détaillées

Relevés météo

Pas de 6 minutes Afficher les relevés infra-horaires
Relevés météo détaillés à Barcelonnette pour le Jeudi 3 Septembre 2026
Heure Température °C Point de rosée °C Humidité % Vent moyen (raf.), km/h Précipitations mm Hauteur neige cm
19:24 20.1 °C 9.6 °C 51 % 3 km/h (8 km/h) 0 mm0 mm 0 cm
19:18 20.9 °C 9.8 °C 49 % 3 km/h (8 km/h) 0 mm0 mm 0 cm
19:12 21.9 °C 9.8 °C 46 % 4 km/h (11 km/h) 0 mm0 mm 0 cm
19:06 23.3 °C 7.8 °C 37 % 4 km/h (11 km/h) 0 mm0 mm 0 cm
19:00 24.2 °C 9.4 °C 39 % 5 km/h (13 km/h) 0 mm0 mm 0 cm
18:54 24.7 °C 6.9 °C 32 % 7 km/h (16 km/h) 0 mm0 mm 0 cm
18:48 25.1 °C 6.8 °C 31 % 8 km/h (16 km/h) 0 mm0 mm 0 cm
18:42 25.3 °C 7.4 °C 32 % 7 km/h (14 km/h) 0 mm0 mm 0 cm
18:36 25.4 °C 7 °C 31 % 7 km/h (16 km/h) 0 mm0 mm 0 cm
18:30 25.5 °C 6.2 °C 29 % 11 km/h (20 km/h) 0 mm0 mm 0 cm
18:24 25.6 °C 6.2 °C 29 % 13 km/h (23 km/h) 0 mm0 mm 0 cm
18:18 25.9 °C 6.5 °C 29 % 12 km/h (24 km/h) 0 mm0 mm 0 cm
18:12 26.4 °C 6.4 °C 28 % 12 km/h (26 km/h) 0 mm0 mm 0 cm
18:06 26.7 °C 7.2 °C 29 % 13 km/h (27 km/h) 0 mm0 mm 0 cm
18:00 26.8 °C 5.7 °C 26 % 14 km/h (26 km/h) 0 mm0 mm 0 cm
17:54 27 °C 5.9 °C 26 % 14 km/h (26 km/h) 0 mm0 mm 0 cm
17:48 27.1 °C 6.5 °C 27 % 15 km/h (31 km/h) 0 mm0 mm 0 cm
17:42 27.2 °C 5.5 °C 25 % 16 km/h (32 km/h) 0 mm0 mm 0 cm
17:36 27.5 °C 6.8 °C 27 % 13 km/h (31 km/h) 0 mm0 mm 0 cm
17:30 27.5 °C 6.8 °C 27 % 13 km/h (31 km/h) 0 mm0 mm 0 cm
17:24 27.5 °C 6.8 °C 27 % 16 km/h (31 km/h) 0 mm0 mm 0 cm
17:18 27.5 °C 6.8 °C 27 % 16 km/h (31 km/h) 0 mm0 mm 0 cm
17:12 27.6 °C 7.4 °C 28 % 14 km/h (31 km/h) 0 mm0 mm 0 cm
17:06 27.7 °C 7.5 °C 28 % 14 km/h (31 km/h) 0 mm0 mm 0 cm
17:00 27.7 °C 7.5 °C 28 % 15 km/h (31 km/h) 0 mm0 mm 0 cm
16:54 27.8 °C 8.1 °C 29 % 15 km/h (33 km/h) 0 mm0 mm 0 cm
16:48 27.9 °C 7.7 °C 28 % 13 km/h (31 km/h) 0 mm0 mm 0 cm
16:42 27.9 °C 8.2 °C 29 % 12 km/h (32 km/h) 0 mm0 mm 0 cm
16:36 27.8 °C 7.1 °C 27 % 14 km/h (33 km/h) 0 mm0 mm 0 cm
16:30 28 °C 8.3 °C 29 % 12 km/h (30 km/h) 0 mm0 mm 0 cm
16:24 27.9 °C 7.7 °C 28 % 13 km/h (34 km/h) 0 mm0 mm 0 cm
16:18 27.9 °C 8.2 °C 29 % 13 km/h (28 km/h) 0 mm0 mm 0 cm
16:12 27.9 °C 7.7 °C 28 % 15 km/h (33 km/h) 0 mm0 mm 0 cm
16:06 27.7 °C 7.5 °C 28 % 18 km/h (36 km/h) 0 mm0 mm 0 cm
16:00 27.7 °C 7.5 °C 28 % 16 km/h (33 km/h) 0 mm0 mm 0 cm
15:54 27.8 °C 8.1 °C 29 % 15 km/h (33 km/h) 0 mm0 mm 0 cm
15:48 27.7 °C 8 °C 29 % 15 km/h (32 km/h) 0 mm0 mm 0 cm
15:42 27.7 °C 8 °C 29 % 15 km/h (31 km/h) 0 mm0 mm 0 cm
15:36 27.7 °C 8 °C 29 % 12 km/h (29 km/h) 0 mm0 mm 0 cm
15:30 27.9 °C 8.7 °C 30 % 11 km/h (31 km/h) 0 mm0 mm 0 cm
15:24 27.8 °C 8.1 °C 29 % 13 km/h (31 km/h) 0 mm0 mm 0 cm
15:18 27.8 °C 8.1 °C 29 % 14 km/h (30 km/h) 0 mm0 mm 0 cm
15:12 27.7 °C 8.5 °C 30 % 15 km/h (30 km/h) 0 mm0 mm 0 cm
15:06 27.5 °C 8.4 °C 30 % 16 km/h (32 km/h) 0 mm0 mm 0 cm
15:00 27.5 °C 8.4 °C 30 % 15 km/h (32 km/h) 0 mm0 mm 0 cm
14:54 27.5 °C 7.9 °C 29 % 14 km/h (29 km/h) 0 mm0 mm 0 cm
14:48 27.2 °C 9.1 °C 32 % 14 km/h (25 km/h) 0 mm0 mm 0 cm
14:42 27 °C 8.4 °C 31 % 13 km/h (25 km/h) 0 mm0 mm 0 cm
14:36 27.1 °C 8 °C 30 % 12 km/h (27 km/h) 0 mm0 mm 0 cm
14:30 27.1 °C 7.5 °C 29 % 13 km/h (27 km/h) 0 mm0 mm 0 cm
14:24 27.1 °C 7.5 °C 29 % 12 km/h (25 km/h) 0 mm0 mm 0 cm
14:18 27 °C 7.4 °C 29 % 12 km/h (23 km/h) 0 mm0 mm 0 cm
14:12 27 °C 7.4 °C 29 % 12 km/h (23 km/h) 0 mm0 mm 0 cm
14:06 27 °C 7.4 °C 29 % 10 km/h (23 km/h) 0 mm0 mm 0 cm
14:00 26.8 °C 7.8 °C 30 % 10 km/h (24 km/h) 0 mm0 mm 0 cm
13:54 26.4 °C 7.9 °C 31 % 10 km/h (23 km/h) 0 mm0 mm 0 cm
13:48 26.5 °C 7.5 °C 30 % 12 km/h (23 km/h) 0 mm0 mm 0 cm
13:42 26.1 °C 7.2 °C 30 % 13 km/h (23 km/h) 0 mm0 mm 0 cm
13:36 26 °C 7.1 °C 30 % 13 km/h (23 km/h) 0 mm0 mm 0 cm
13:30 25.8 °C 7.4 °C 31 % 13 km/h (21 km/h) 0 mm0 mm 0 cm
13:24 25.6 °C 7.2 °C 31 % 13 km/h (22 km/h) 0 mm0 mm 0 cm
13:18 25.7 °C 7.8 °C 32 % 11 km/h (22 km/h) 0 mm0 mm 0 cm
13:12 25.7 °C 8.2 °C 33 % 10 km/h (23 km/h) 0 mm0 mm 0 cm
13:06 25.6 °C 8.1 °C 33 % 10 km/h (19 km/h) 0 mm0 mm 0 cm
13:00 25.2 °C 7.8 °C 33 % 10 km/h (17 km/h) 0 mm0 mm 0 cm
12:54 25.2 °C 9.1 °C 36 % 9 km/h (17 km/h) 0 mm0 mm 0 cm
12:48 25.3 °C 8.7 °C 35 % 8 km/h (18 km/h) 0 mm0 mm 0 cm
12:42 25 °C 8 °C 34 % 8 km/h (18 km/h) 0 mm0 mm 0 cm
12:36 24.6 °C 8.1 °C 35 % 9 km/h (16 km/h) 0 mm0 mm 0 cm
12:30 24.5 °C 7.6 °C 34 % 10 km/h (17 km/h) 0 mm0 mm 0 cm
12:24 24.3 °C 7.9 °C 35 % 9 km/h (17 km/h) 0 mm0 mm 0 cm
12:18 24.4 °C 7.5 °C 34 % 7 km/h (13 km/h) 0 mm0 mm 0 cm
12:12 24.2 °C 9.7 °C 40 % 7 km/h (13 km/h) 0 mm0 mm 0 cm
12:06 23.8 °C 8.2 °C 37 % 8 km/h (15 km/h) 0 mm0 mm 0 cm
12:00 23.7 °C 8.9 °C 39 % 8 km/h (15 km/h) 0 mm0 mm 0 cm
11:54 23.3 °C 8.2 °C 38 % 8 km/h (13 km/h) 0 mm0 mm 0 cm
11:48 23.2 °C 7.7 °C 37 % 7 km/h (13 km/h) 0 mm0 mm 0 cm
11:42 23 °C 7.1 °C 36 % 6 km/h (12 km/h) 0 mm0 mm 0 cm
11:36 22.7 °C 8.4 °C 40 % 6 km/h (10 km/h) 0 mm0 mm 0 cm
11:30 22.6 °C 7.6 °C 38 % 5 km/h (10 km/h) 0 mm0 mm 0 cm
11:24 22.5 °C 8.9 °C 42 % 4 km/h (9 km/h) 0 mm0 mm 0 cm
11:18 22.1 °C 8.6 °C 42 % 4 km/h (9 km/h) 0 mm0 mm 0 cm
11:12 21.5 °C 8.4 °C 43 % 5 km/h (8 km/h) 0 mm0 mm 0 cm
11:06 21.3 °C 8.5 °C 44 % 5 km/h (10 km/h) 0 mm0 mm 0 cm
11:00 20.8 °C 9.1 °C 47 % 5 km/h (8 km/h) 0 mm0 mm 0 cm
10:54 20.7 °C 8.7 °C 46 % 5 km/h (8 km/h) 0 mm0 mm 0 cm
10:48 21.2 °C 8.8 °C 45 % 3 km/h (7 km/h) 0 mm0 mm 0 cm
10:42 21.1 °C 9 °C 46 % 4 km/h (7 km/h) 0 mm0 mm 0 cm
10:36 20.7 °C 7.3 °C 42 % 4 km/h (8 km/h) 0 mm0 mm 0 cm
10:30 21.1 °C 8.7 °C 45 % 3 km/h (7 km/h) 0 mm0 mm 0 cm
10:24 20.7 °C 8.3 °C 45 % 3 km/h (7 km/h) 0 mm0 mm 0 cm
10:18 20.3 °C 8.3 °C 46 % 3 km/h (7 km/h) 0 mm0 mm 0 cm
10:12 20.3 °C 8.9 °C 48 % 3 km/h (6 km/h) 0 mm0 mm 0 cm
10:06 19.6 °C 8.6 °C 49 % 2 km/h (6 km/h) 0 mm0 mm 0 cm
10:00 19.4 °C 8.7 °C 50 % 2 km/h (5 km/h) 0 mm0 mm 0 cm
09:54 18.9 °C 9.4 °C 54 % 3 km/h (5 km/h) 0 mm0 mm 0 cm
09:48 18.7 °C 8.9 °C 53 % 3 km/h (5 km/h) 0 mm0 mm 0 cm
09:42 18.2 °C 7.9 °C 51 % 3 km/h (5 km/h) 0 mm0 mm 0 cm
09:36 18.4 °C 9.5 °C 56 % 0 km/h (5 km/h) 0 mm0 mm 0 cm
09:30 17.4 °C 9 °C 58 % 2 km/h (5 km/h) 0 mm0 mm 0 cm
09:24 16.9 °C 9.1 °C 60 % 3 km/h (7 km/h) 0 mm0 mm 0 cm
09:18 16.1 °C 9 °C 63 % 4 km/h (9 km/h) 0 mm0 mm 0 cm
09:12 15.3 °C 9.6 °C 69 % 4 km/h (9 km/h) 0 mm0 mm 0 cm
09:06 14.9 °C 9.9 °C 72 % 3 km/h (8 km/h) 0 mm0 mm 0 cm
09:00 14.4 °C 10.2 °C 76 % 4 km/h (8 km/h) 0 mm0 mm 0 cm
08:54 13.8 °C 10 °C 78 % 4 km/h (8 km/h) 0 mm0 mm 0 cm
08:48 13.7 °C 10.5 °C 81 % 2 km/h (6 km/h) 0 mm0 mm 0 cm
08:42 12.8 °C 10.3 °C 85 % 0 km/h (5 km/h) 0 mm0 mm 0 cm
08:36 12.4 °C 10.1 °C 86 % 0 km/h (4 km/h) 0 mm0 mm 0 cm
08:30 11.7 °C 10.3 °C 91 % 0 km/h (4 km/h) 0 mm0 mm 0 cm
08:24 10.8 °C 10.2 °C 96 % 0 km/h (4 km/h) 0 mm0 mm 0 cm
08:18 9.8 °C 9.7 °C 99 % 0 km/h (4 km/h) 0 mm0 mm 0 cm
08:12 8.9 °C 8.6 °C 98 % 0 km/h (5 km/h) 0 mm0 mm 0 cm
08:06 8.6 °C 8.5 °C 99 % 0 km/h (6 km/h) 0 mm0 mm 0 cm
08:00 8.1 °C 8 °C 99 % 0 km/h (6 km/h) 0 mm0 mm 0 cm
07:54 7.3 °C 7 °C 98 % 0 km/h (5 km/h) 0 mm0 mm 0 cm
07:48 7.1 °C 6.8 °C 98 % 0 km/h (5 km/h) 0 mm0 mm 0 cm
07:42 7 °C 6.7 °C 98 % 0 km/h (5 km/h) 0 mm0 mm 0 cm
07:36 7 °C 6.7 °C 98 % 0 km/h (4 km/h) 0 mm0 mm 0 cm
07:30 6.9 °C 6.6 °C 98 % 0 km/h (4 km/h) 0 mm0 mm 0 cm
07:24 7 °C 6.7 °C 98 % 0 km/h (5 km/h) 0 mm0 mm 0 cm
07:18 7.2 °C 6.9 °C 98 % 2 km/h (6 km/h) 0 mm0 mm 0 cm
07:12 6.9 °C 6.6 °C 98 % 0 km/h (5 km/h) 0 mm0 mm 0 cm
07:06 6.9 °C 6.6 °C 98 % 2 km/h (5 km/h) 0 mm0 mm 0 cm
07:00 7 °C 6.7 °C 98 % 2 km/h (5 km/h) 0 mm0 mm 0 cm
06:54 6.7 °C 6.4 °C 98 % 2 km/h (5 km/h) 0 mm0 mm 0 cm
06:48 6.7 °C 6.3 °C 97 % 0 km/h (4 km/h) 0 mm0 mm 0 cm
06:42 6.6 °C 6.2 °C 97 % 0 km/h (5 km/h) 0 mm0 mm 0 cm
06:36 6.3 °C 5.7 °C 96 % 0 km/h (5 km/h) 0 mm0 mm 0 cm
06:30 7 °C 6.6 °C 97 % 0 km/h (4 km/h) 0 mm0 mm 0 cm
06:24 6.6 °C 6.2 °C 97 % 2 km/h (4 km/h) 0 mm0 mm 0 cm
06:18 6.4 °C 5.8 °C 96 % 0 km/h (5 km/h) 0 mm0 mm 0 cm
06:12 7 °C 6.6 °C 97 % 0 km/h (5 km/h) 0 mm0 mm 0 cm
06:06 7 °C 6.6 °C 97 % 0 km/h (5 km/h) 0 mm0 mm 0 cm
06:00 7.1 °C 6.7 °C 97 % 2 km/h (4 km/h) 0 mm0 mm 0 cm
05:54 6.9 °C 6.3 °C 96 % 0 km/h (4 km/h) 0 mm0 mm 0 cm
05:48 7.4 °C 7 °C 97 % 3 km/h (7 km/h) 0 mm0 mm 0 cm
05:42 7.2 °C 6.8 °C 97 % 3 km/h (7 km/h) 0 mm0 mm 0 cm
05:36 7.2 °C 6.6 °C 96 % 2 km/h (6 km/h) 0 mm0 mm 0 cm
05:30 7.4 °C 7 °C 97 % 2 km/h (5 km/h) 0 mm0 mm 0 cm
05:24 7.4 °C 7 °C 97 % 0 km/h (7 km/h) 0 mm0 mm 0 cm
05:18 7.4 °C 7 °C 97 % 0 km/h (8 km/h) 0 mm0 mm 0 cm
05:12 7.4 °C 7 °C 97 % 0 km/h (8 km/h) 0 mm0 mm 0 cm
05:06 7.4 °C 7 °C 97 % 2 km/h (4 km/h) 0 mm0 mm 0 cm
05:00 7.4 °C 6.8 °C 96 % 2 km/h (6 km/h) 0 mm0 mm 0 cm
04:54 7.4 °C 6.8 °C 96 % 2 km/h (6 km/h) 0 mm0 mm 0 cm
04:48 7.5 °C 7.1 °C 97 % 2 km/h (5 km/h) 0 mm0 mm 0 cm
04:42 7.6 °C 7.2 °C 97 % 0 km/h (5 km/h) 0 mm0 mm 0 cm
04:36 7.5 °C 6.9 °C 96 % 0 km/h (5 km/h) 0 mm0 mm 0 cm
04:30 7.4 °C 6.8 °C 96 % 0 km/h (5 km/h) 0 mm0 mm 0 cm
04:24 7.3 °C 6.6 °C 95 % 2 km/h (5 km/h) 0 mm0 mm 0 cm
04:18 8 °C 7.4 °C 96 % 2 km/h (5 km/h) 0 mm0 mm 0 cm
04:12 7.9 °C 7.3 °C 96 % 2 km/h (6 km/h) 0 mm0 mm 0 cm
04:06 7.8 °C 7.2 °C 96 % 0 km/h (6 km/h) 0 mm0 mm 0 cm
04:00 7.9 °C 7.3 °C 96 % 0 km/h (4 km/h) 0 mm0 mm 0 cm
03:54 7.9 °C 7.3 °C 96 % 0 km/h (8 km/h) 0 mm0 mm 0 cm
03:48 8.1 °C 7.5 °C 96 % 0 km/h (5 km/h) 0 mm0 mm 0 cm
03:42 8 °C 7.4 °C 96 % 2 km/h (5 km/h) 0 mm0 mm 0 cm
03:36 7.9 °C 7.1 °C 95 % 2 km/h (5 km/h) 0 mm0 mm 0 cm
03:30 7.7 °C 6.8 °C 94 % 2 km/h (9 km/h) 0 mm0 mm 0 cm
03:24 8.1 °C 7.2 °C 94 % 0 km/h (9 km/h) 0 mm0 mm 0 cm
03:18 8.3 °C 7.4 °C 94 % 0 km/h (5 km/h) 0 mm0 mm 0 cm
03:12 8.5 °C 7.7 °C 95 % 3 km/h (6 km/h) 0 mm0 mm 0 cm
03:06 8.5 °C 7.7 °C 95 % 3 km/h (6 km/h) 0 mm0 mm 0 cm
03:00 8.5 °C 7.6 °C 94 % 0 km/h (4 km/h) 0 mm0 mm 0 cm
02:54 8.7 °C 7.8 °C 94 % 0 km/h (3 km/h) 0 mm0 mm 0 cm
02:48 8.7 °C 7.8 °C 94 % 0 km/h (3 km/h) 0 mm0 mm 0 cm
02:42 8.9 °C 8.1 °C 95 % 0 km/h (4 km/h) 0 mm0 mm 0 cm
02:36 8.6 °C 7.5 °C 93 % 0 km/h (4 km/h) 0 mm0 mm 0 cm
02:30 8.8 °C 7.7 °C 93 % 2 km/h (4 km/h) 0 mm0 mm 0 cm
02:24 8.9 °C 8 °C 94 % 2 km/h (4 km/h) 0 mm0 mm 0 cm
02:18 9 °C 8.1 °C 94 % 0 km/h (3 km/h) 0 mm0 mm 0 cm
02:12 9 °C 8.1 °C 94 % 2 km/h (3 km/h) 0 mm0 mm 0 cm
02:06 9 °C 7.9 °C 93 % 0 km/h (3 km/h) 0 mm0 mm 0 cm
02:00 9 °C 7.9 °C 93 % 2 km/h (4 km/h) 0 mm0 mm 0 cm
01:54 9.2 °C 8.1 °C 93 % 2 km/h (4 km/h) 0 mm0 mm 0 cm
01:48 9.3 °C 8.4 °C 94 % 0 km/h (3 km/h) 0 mm0 mm 0 cm
01:42 9.3 °C 8.4 °C 94 % 0 km/h (3 km/h) 0 mm0 mm
01:36 9.3 °C 8.4 °C 94 % 2 km/h (4 km/h) 0 mm0 mm 0 cm
01:30 9.2 °C 8.1 °C 93 % 3 km/h (5 km/h) 0 mm0 mm 0 cm
01:24 9.3 °C 7.9 °C 91 % 0 km/h (4 km/h) 0 mm0 mm 0 cm
01:18 9.8 °C 8.6 °C 92 % 0 km/h (4 km/h) 0 mm0 mm 0 cm
01:12 9.9 °C 8.7 °C 92 % 2 km/h (4 km/h) 0 mm0 mm 0 cm
01:06 9.9 °C 8.7 °C 92 % 0 km/h (4 km/h) 0 mm0 mm 0 cm
01:00 9.8 °C 8.6 °C 92 % 3 km/h (6 km/h) 0 mm0 mm 0 cm
00:54 9.6 °C 8.2 °C 91 % 2 km/h (5 km/h) 0 mm0 mm 0 cm
00:48 10 °C 8.8 °C 92 % 2 km/h (4 km/h) 0 mm0 mm 0 cm
00:42 10 °C 8.6 °C 91 % 0 km/h (3 km/h) 0 mm0 mm 0 cm
00:36 10 °C 8.6 °C 91 % 0 km/h (3 km/h) 0 mm0 mm 0 cm
00:30 10.1 °C 8.7 °C 91 % 0 km/h (0 km/h) 0 mm0 mm 0 cm
00:24 10.1 °C 8.5 °C 90 % 0 km/h (3 km/h) 0 mm0 mm 0 cm
00:18 10.4 °C 8.7 °C 89 % 2 km/h (4 km/h) 0 mm0 mm 0 cm
00:12 10.4 °C 8.5 °C 88 % 2 km/h (5 km/h) 0 mm0 mm 0 cm
00:06 10.7 °C 8.8 °C 88 % 2 km/h (5 km/h) 0 mm0 mm
00:00 10.9 °C 9.2 °C 89 % 3 km/h (6 km/h) 0 mm0 mm 0 cm

Données via Météo-France

Relevés météo à Barcelonnette

Cette page rassemble les observations de la station de Barcelonnette : température, humidité, vent, précipitations et pression atmosphérique. Les graphiques facilitent le suivi de la journée, tandis que le tableau donne accès aux mesures horaires et infra-horaires disponibles.

Pour replacer ces mesures dans leur contexte, consultez la climatologie de Barcelonnette ainsi que ses normales et records. Retrouvez aussi la carte des observations météo en temps réel.